createdAt,value
2023-05-14T00:03:59.240Z,0.30
2023-05-14T00:09:01.127Z,0.20
2023-05-14T00:14:02.865Z,0.20
2023-05-14T00:19:04.626Z,0.30
2023-05-14T00:24:06.540Z,0.30
2023-05-14T00:29:08.275Z,0.22
2023-05-14T00:34:10.070Z,0.30
2023-05-14T00:39:13.583Z,0.30
2023-05-14T00:44:15.616Z,0.30
2023-05-14T00:49:18.041Z,0.30
2023-05-14T00:54:20.987Z,0.28
2023-05-14T00:59:22.784Z,0.20
2023-05-14T01:04:24.841Z,0.30
2023-05-14T01:09:32.377Z,0.20
2023-05-14T01:14:43.962Z,0.28
2023-05-14T01:19:47.525Z,0.30
2023-05-14T01:24:49.245Z,0.30
2023-05-14T01:30:16.986Z,0.30
2023-05-14T01:35:20.353Z,0.30
2023-05-14T01:40:23.352Z,0.30
2023-05-14T01:45:25.265Z,0.30
2023-05-14T01:50:27.090Z,0.20
2023-05-14T01:55:28.915Z,0.25
2023-05-14T02:00:30.659Z,0.25
2023-05-14T02:05:32.493Z,0.30
2023-05-14T02:10:34.229Z,0.30
2023-05-14T02:15:35.984Z,0.30
2023-05-14T02:20:38.051Z,0.30
2023-05-14T02:25:39.782Z,0.30
2023-05-14T02:30:41.536Z,0.30
2023-05-14T02:35:43.269Z,0.30
2023-05-14T02:40:45.033Z,0.30
2023-05-14T02:45:47.363Z,0.30
2023-05-14T02:50:51.448Z,0.20
2023-05-14T02:55:53.175Z,0.22
2023-05-14T03:00:55.055Z,0.30
2023-05-14T03:05:57.517Z,0.30
2023-05-14T03:10:59.338Z,0.30
2023-05-14T03:16:01.064Z,0.30
2023-05-14T03:21:03.975Z,0.30
2023-05-14T03:26:06.383Z,0.30
2023-05-14T03:31:08.176Z,0.30
2023-05-14T03:36:10.035Z,0.22
2023-05-14T03:41:11.815Z,0.30
2023-05-14T03:46:13.541Z,0.30
2023-05-14T03:51:15.405Z,0.40
2023-05-14T03:56:17.127Z,0.40
2023-05-14T04:01:18.980Z,0.40
2023-05-14T04:06:20.928Z,0.40
2023-05-14T04:11:22.742Z,0.50
2023-05-14T04:16:24.522Z,0.40
2023-05-14T04:21:26.296Z,0.40
2023-05-14T04:26:27.989Z,0.40
2023-05-14T04:31:30.421Z,0.40
2023-05-14T04:36:32.376Z,0.30
2023-05-14T04:41:34.065Z,0.30
2023-05-14T04:46:35.867Z,0.40
2023-05-14T04:51:37.652Z,0.40
2023-05-14T04:56:39.433Z,0.30
2023-05-14T05:01:41.182Z,0.40
2023-05-14T05:06:43.124Z,0.40
2023-05-14T05:11:44.836Z,0.40
2023-05-14T05:16:47.088Z,0.40
2023-05-14T05:21:49.278Z,0.40
2023-05-14T05:26:51.965Z,0.40
2023-05-14T05:31:53.799Z,0.40
2023-05-14T05:36:56.161Z,0.40
2023-05-14T05:41:57.852Z,0.40
2023-05-14T05:47:01.068Z,0.40
2023-05-14T05:52:02.962Z,0.45
2023-05-14T05:57:04.938Z,0.40
2023-05-14T06:02:06.883Z,0.40
2023-05-14T06:07:08.810Z,0.40
2023-05-14T06:12:10.573Z,0.43
2023-05-14T06:17:12.316Z,0.40
2023-05-14T06:22:14.817Z,0.40
2023-05-14T06:27:16.717Z,0.40
2023-05-14T06:32:18.515Z,0.40
2023-05-14T06:37:20.453Z,0.40
2023-05-14T06:42:22.210Z,0.40
2023-05-14T06:47:24.201Z,0.40
2023-05-14T06:52:26.117Z,0.40
2023-05-14T06:57:27.889Z,0.40
2023-05-14T07:02:29.766Z,0.40
2023-05-14T07:07:31.704Z,0.47
2023-05-14T07:12:33.458Z,0.50
2023-05-14T07:17:35.570Z,0.50
2023-05-14T07:22:37.386Z,0.40
2023-05-14T07:27:39.070Z,0.43
2023-05-14T07:32:40.791Z,0.40
2023-05-14T07:37:43.510Z,0.43
2023-05-14T07:42:45.269Z,0.50
2023-05-14T07:47:47.175Z,0.50
2023-05-14T07:52:49.150Z,0.50
2023-05-14T07:57:51.088Z,0.40
2023-05-14T08:02:53.115Z,0.50
2023-05-14T08:07:54.988Z,0.50
2023-05-14T08:12:56.850Z,0.50
2023-05-14T08:18:03.328Z,0.50
2023-05-14T08:23:05.179Z,0.50
2023-05-14T08:28:07.705Z,0.40
2023-05-14T08:33:09.494Z,0.40
2023-05-14T08:38:11.312Z,0.43
2023-05-14T08:43:17.998Z,0.50
2023-05-14T08:53:24.587Z,0.50
2023-05-14T08:58:27.638Z,0.50
2023-05-14T09:03:30.353Z,0.40
2023-05-14T09:08:32.268Z,0.50
2023-05-14T09:13:38.324Z,0.50
2023-05-14T09:18:45.226Z,0.55
2023-05-14T09:23:48.430Z,0.50
2023-05-14T09:28:53.142Z,0.40
2023-05-14T09:33:54.936Z,0.45
2023-05-14T09:38:57.874Z,0.55
2023-05-14T09:44:02.443Z,0.40
2023-05-14T09:49:05.161Z,0.47
2023-05-14T09:54:07.855Z,0.50
2023-05-14T09:59:09.797Z,0.45
2023-05-14T10:04:12.520Z,0.45
2023-05-14T10:09:16.859Z,0.30
2023-05-14T10:14:32.722Z,0.35
2023-05-14T10:19:35.929Z,0.40
2023-05-14T10:24:39.154Z,0.40
2023-05-14T10:29:42.020Z,0.40
2023-05-14T10:34:44.492Z,0.40
2023-05-14T10:39:54.261Z,0.40
2023-05-14T10:44:58.904Z,0.40
2023-05-14T10:50:03.445Z,0.40
2023-05-14T10:55:10.348Z,0.40
2023-05-14T11:00:13.856Z,0.40
2023-05-14T11:05:17.713Z,0.40
2023-05-14T11:10:21.990Z,0.40
2023-05-14T11:15:26.121Z,0.40
2023-05-14T11:20:27.897Z,0.30
2023-05-14T11:25:30.023Z,0.50
2023-05-14T11:30:31.772Z,0.40
2023-05-14T11:35:33.586Z,0.40
2023-05-14T11:40:35.310Z,0.40
2023-05-14T11:45:37.815Z,0.40
2023-05-14T11:50:40.630Z,0.40
2023-05-14T11:55:42.425Z,0.40
2023-05-14T12:00:50.354Z,0.40
2023-05-14T12:05:59.931Z,0.40
2023-05-14T12:11:02.107Z,0.40
2023-05-14T12:16:04.132Z,0.40
2023-05-14T12:21:09.514Z,0.30
2023-05-14T12:26:12.767Z,0.40
2023-05-14T12:31:16.027Z,0.40
2023-05-14T12:36:21.636Z,0.40
2023-05-14T12:41:24.382Z,0.40
2023-05-14T12:46:27.769Z,0.40
2023-05-14T12:51:29.898Z,0.40
2023-05-14T12:56:32.129Z,0.40
2023-05-14T13:01:34.112Z,0.38
2023-05-14T13:06:36.871Z,0.30
2023-05-14T13:11:39.237Z,0.40
2023-05-14T13:16:41.107Z,0.30
2023-05-14T13:21:43.528Z,0.30
2023-05-14T13:26:45.249Z,0.40
2023-05-14T13:31:47.259Z,0.40
2023-05-14T13:36:49.941Z,0.40
2023-05-14T13:41:51.841Z,0.40
2023-05-14T13:46:53.899Z,0.40
2023-05-14T13:51:55.770Z,0.40
2023-05-14T13:56:57.582Z,0.30
2023-05-14T14:01:59.463Z,0.40
2023-05-14T14:07:01.292Z,0.40
2023-05-14T14:12:06.714Z,0.40
2023-05-14T14:17:09.070Z,0.40
2023-05-14T14:22:12.590Z,0.40
2023-05-14T14:27:14.359Z,0.40
2023-05-14T14:32:16.283Z,0.40
2023-05-14T14:37:18.139Z,0.40
2023-05-14T14:42:20.076Z,0.40
2023-05-14T14:47:22.103Z,0.40
2023-05-14T14:52:24.578Z,0.40
2023-05-14T14:57:26.874Z,0.40
2023-05-14T15:02:28.807Z,0.40
2023-05-14T15:07:32.989Z,0.40
2023-05-14T15:12:34.834Z,0.40
2023-05-14T15:17:36.571Z,0.32
2023-05-14T15:22:38.407Z,0.40
2023-05-14T15:27:40.317Z,0.30
2023-05-14T15:32:42.766Z,0.30
2023-05-14T15:37:45.090Z,0.30
2023-05-14T15:42:47.065Z,0.40
2023-05-14T15:47:48.885Z,0.40
2023-05-14T15:52:50.904Z,0.40
2023-05-14T15:57:52.924Z,0.40
2023-05-14T16:02:54.772Z,0.40
2023-05-14T16:07:56.587Z,0.40
2023-05-14T16:12:58.400Z,0.30
2023-05-14T16:18:00.809Z,0.30
2023-05-14T16:23:02.645Z,0.40
2023-05-14T16:28:04.740Z,0.35
2023-05-14T16:33:06.656Z,0.30
2023-05-14T16:38:08.633Z,0.40
2023-05-14T16:43:10.489Z,0.40
2023-05-14T16:48:12.378Z,0.40
2023-05-14T16:53:14.082Z,0.40
2023-05-14T16:58:16.027Z,0.30
2023-05-14T17:03:17.769Z,0.30
2023-05-14T17:08:19.776Z,0.40
2023-05-14T17:13:21.550Z,0.40
2023-05-14T17:18:23.517Z,0.30
2023-05-14T17:23:25.416Z,0.30
2023-05-14T17:28:28.404Z,0.40
2023-05-14T17:33:30.374Z,0.40
2023-05-14T17:38:32.164Z,0.40
2023-05-14T17:43:34.037Z,0.40
2023-05-14T17:48:35.909Z,0.40
2023-05-14T17:53:37.989Z,0.40
2023-05-14T17:58:39.692Z,0.40
2023-05-14T18:03:41.518Z,0.40
2023-05-14T18:08:43.311Z,0.40
2023-05-14T18:13:45.260Z,0.30
2023-05-14T18:18:47.682Z,0.30
2023-05-14T18:23:49.627Z,0.30
2023-05-14T18:28:51.852Z,0.30
2023-05-14T18:33:53.949Z,0.30
2023-05-14T18:38:55.897Z,0.30
2023-05-14T18:43:58.180Z,0.40
2023-05-14T18:49:00.134Z,0.30
2023-05-14T18:54:02.061Z,0.30
2023-05-14T18:59:04.351Z,0.40
2023-05-14T19:04:06.387Z,0.30
2023-05-14T19:09:08.516Z,0.30
2023-05-14T19:14:11.438Z,0.30
2023-05-14T19:19:13.460Z,0.30
2023-05-14T19:24:15.909Z,0.30
2023-05-14T19:29:17.655Z,0.30
2023-05-14T19:34:19.435Z,0.30
2023-05-14T19:39:21.125Z,0.30
2023-05-14T19:44:22.856Z,0.30
2023-05-14T19:49:24.570Z,0.30
2023-05-14T19:54:26.324Z,0.30
2023-05-14T19:59:29.798Z,0.30
2023-05-14T20:04:31.532Z,0.30
2023-05-14T20:09:33.257Z,0.30
2023-05-14T20:14:35.061Z,0.30
2023-05-14T20:19:36.829Z,0.30
2023-05-14T20:24:39.093Z,0.30
2023-05-14T20:29:41.219Z,0.30
2023-05-14T20:34:42.940Z,0.30
2023-05-14T20:39:44.693Z,0.20
2023-05-14T20:44:48.347Z,0.22
2023-05-14T20:49:50.692Z,0.30
2023-05-14T20:54:52.584Z,0.30
2023-05-14T20:59:54.286Z,0.30
2023-05-14T21:04:56.072Z,0.20
2023-05-14T21:09:57.811Z,0.30
2023-05-14T21:14:59.585Z,0.30
2023-05-14T21:20:01.373Z,0.30
2023-05-14T21:25:03.374Z,0.30
2023-05-14T21:30:05.721Z,0.30
2023-05-14T21:35:07.767Z,0.30
2023-05-14T21:40:12.160Z,0.30
2023-05-14T21:45:14.086Z,0.30
2023-05-14T21:50:15.907Z,0.20
2023-05-14T21:55:17.740Z,0.20
2023-05-14T22:00:23.473Z,0.20
2023-05-14T22:05:25.821Z,0.30
2023-05-14T22:10:27.879Z,0.30
2023-05-14T22:15:29.680Z,0.30
2023-05-14T22:20:31.505Z,0.30
2023-05-14T22:25:33.337Z,0.28
2023-05-14T22:30:35.033Z,0.28
2023-05-14T22:35:36.907Z,0.30
2023-05-14T22:40:38.746Z,0.22
2023-05-14T22:45:40.539Z,0.30
2023-05-14T22:50:42.337Z,0.30
2023-05-14T22:55:44.201Z,0.20
2023-05-14T23:00:45.968Z,0.30
2023-05-14T23:05:47.741Z,0.30
2023-05-14T23:10:49.633Z,0.30
2023-05-14T23:15:51.454Z,0.30
2023-05-14T23:20:53.231Z,0.20
2023-05-14T23:25:56.037Z,0.30
2023-05-14T23:30:57.864Z,0.20
2023-05-14T23:35:59.645Z,0.30
2023-05-14T23:41:01.397Z,0.30
2023-05-14T23:46:03.186Z,0.30
2023-05-14T23:51:04.927Z,0.30
2023-05-14T23:56:07.001Z,0.30
